createdAt,value
2022-11-16T00:01:42.349Z,25.73
2022-11-16T00:04:12.093Z,30.70
2022-11-16T00:06:39.357Z,26.13
2022-11-16T00:09:27.232Z,34.67
2022-11-16T00:11:57.053Z,25.35
2022-11-16T00:14:26.623Z,26.40
2022-11-16T00:16:53.695Z,24.90
2022-11-16T00:19:21.015Z,26.40
2022-11-16T00:21:47.785Z,27.10
2022-11-16T00:24:17.102Z,24.75
2022-11-16T00:26:44.537Z,27.20
2022-11-16T00:29:18.426Z,26.70
2022-11-16T00:31:45.841Z,28.00
2022-11-16T00:34:13.740Z,26.73
2022-11-16T00:36:40.559Z,23.58
2022-11-16T00:39:10.174Z,28.27
2022-11-16T00:41:36.784Z,24.77
2022-11-16T00:44:04.327Z,23.50
2022-11-16T00:46:30.963Z,29.65
2022-11-16T00:48:58.335Z,25.38
2022-11-16T00:51:24.999Z,25.08
2022-11-16T00:53:52.287Z,28.90
2022-11-16T00:56:19.640Z,27.17
2022-11-16T00:58:46.644Z,25.05
2022-11-16T01:01:13.892Z,30.67
2022-11-16T01:03:41.528Z,34.17
2022-11-16T01:06:10.917Z,30.67
2022-11-16T01:08:39.772Z,25.10
2022-11-16T01:11:26.177Z,32.03
2022-11-16T01:13:54.593Z,29.67
2022-11-16T01:16:23.029Z,30.80
2022-11-16T01:18:52.512Z,30.95
2022-11-16T01:21:20.541Z,28.52
2022-11-16T01:23:47.940Z,32.78
2022-11-16T01:26:14.805Z,37.85
2022-11-16T01:28:42.805Z,35.50
2022-11-16T01:31:11.278Z,36.53
2022-11-16T01:33:39.417Z,34.17
2022-11-16T01:36:14.142Z,37.15
2022-11-16T01:38:43.692Z,32.20
2022-11-16T01:41:22.736Z,38.75
2022-11-16T01:44:06.378Z,35.83
2022-11-16T01:46:51.402Z,37.47
2022-11-16T01:49:22.750Z,38.15
2022-11-16T01:51:56.215Z,35.72
2022-11-16T01:54:24.632Z,27.67
2022-11-16T01:56:56.863Z,38.63
2022-11-16T01:59:38.009Z,40.58
2022-11-16T02:02:06.448Z,38.35
2022-11-16T02:04:34.994Z,37.90
2022-11-16T02:07:19.629Z,36.15
2022-11-16T02:10:13.459Z,37.67
2022-11-16T02:12:54.421Z,36.70
2022-11-16T02:15:50.956Z,40.05
2022-11-16T02:18:32.994Z,38.15
2022-11-16T02:21:26.123Z,40.00
2022-11-16T02:24:19.923Z,41.67
2022-11-16T02:29:44.181Z,40.22
2022-11-16T02:32:24.139Z,40.55
2022-11-16T02:35:03.380Z,46.47
2022-11-16T02:37:34.248Z,38.67
2022-11-16T02:40:04.816Z,42.40
2022-11-16T02:42:41.728Z,44.58
2022-11-16T02:45:15.571Z,42.53
2022-11-16T02:47:44.503Z,44.83
2022-11-16T02:50:18.251Z,43.53
2022-11-16T02:52:45.428Z,40.25
2022-11-16T02:55:13.592Z,49.00
2022-11-16T02:57:49.404Z,46.80
2022-11-16T03:03:03.644Z,42.97
2022-11-16T03:05:37.904Z,44.22
2022-11-16T03:08:23.216Z,45.63
2022-11-16T03:11:17.693Z,41.22
2022-11-16T03:13:45.152Z,46.80
2022-11-16T03:16:20.045Z,42.35
2022-11-16T03:18:49.451Z,45.47
2022-11-16T03:21:29.697Z,54.13
2022-11-16T03:23:57.425Z,43.97
2022-11-16T03:26:29.905Z,43.83
2022-11-16T03:31:47.477Z,47.42
2022-11-16T03:34:23.023Z,50.95
2022-11-16T03:36:52.658Z,45.80
2022-11-16T03:39:25.642Z,46.92
2022-11-16T03:41:53.254Z,44.88
2022-11-16T03:44:21.773Z,37.42
2022-11-16T03:46:48.554Z,33.10
2022-11-16T03:49:20.491Z,34.67
2022-11-16T03:51:47.387Z,23.50
2022-11-16T03:54:15.405Z,27.67
2022-11-16T03:56:42.033Z,24.25
2022-11-16T03:59:09.539Z,26.30
2022-11-16T04:01:39.261Z,22.23
2022-11-16T04:04:30.824Z,22.92
2022-11-16T04:07:16.289Z,25.42
2022-11-16T04:10:02.341Z,18.08
2022-11-16T04:12:48.705Z,22.08
2022-11-16T04:15:34.683Z,15.77
2022-11-16T04:18:19.948Z,14.13
2022-11-16T04:21:06.236Z,17.83
2022-11-16T04:23:52.129Z,16.13
2022-11-16T04:26:19.044Z,14.00
2022-11-16T04:28:47.024Z,20.33
2022-11-16T04:31:32.646Z,15.43
2022-11-16T04:34:25.450Z,15.27
2022-11-16T04:37:13.469Z,12.45
2022-11-16T04:39:41.329Z,12.57
2022-11-16T04:42:17.183Z,8.85
2022-11-16T04:45:05.357Z,8.27
2022-11-16T04:47:37.957Z,10.80
2022-11-16T04:50:06.026Z,10.82
2022-11-16T04:52:32.916Z,10.38
2022-11-16T04:54:59.920Z,8.60
2022-11-16T04:57:27.695Z,12.15
2022-11-16T04:59:55.896Z,7.07
2022-11-16T05:02:22.724Z,8.77
2022-11-16T05:04:54.142Z,8.15
2022-11-16T05:07:22.547Z,8.40
2022-11-16T05:09:51.623Z,6.47
2022-11-16T05:12:21.155Z,12.35
2022-11-16T05:17:19.230Z,8.13
2022-11-16T05:20:05.727Z,10.23
2022-11-16T05:22:38.341Z,8.70
2022-11-16T05:25:08.076Z,14.07
2022-11-16T05:27:35.405Z,9.93
2022-11-16T05:30:05.593Z,7.68
2022-11-16T05:32:32.325Z,10.52
2022-11-16T05:35:00.801Z,9.13
2022-11-16T05:37:27.606Z,11.02
2022-11-16T05:39:57.188Z,11.25
2022-11-16T05:42:31.982Z,12.32
2022-11-16T05:44:59.982Z,11.27
2022-11-16T05:47:26.818Z,10.50
2022-11-16T05:49:54.109Z,9.90
2022-11-16T05:52:21.233Z,17.45
2022-11-16T05:54:48.690Z,17.58
2022-11-16T05:57:15.823Z,16.13
2022-11-16T05:59:43.232Z,19.58
2022-11-16T06:02:09.847Z,10.90
2022-11-16T06:04:37.560Z,15.82
2022-11-16T06:07:04.366Z,10.90
2022-11-16T06:09:35.052Z,17.52
2022-11-16T06:12:11.743Z,15.02
2022-11-16T06:14:39.016Z,15.57
2022-11-16T06:17:05.939Z,12.23
2022-11-16T06:19:34.647Z,16.40
2022-11-16T06:22:02.023Z,13.95
2022-11-16T06:24:30.109Z,11.63
2022-11-16T06:26:57.653Z,15.85
2022-11-16T06:29:24.960Z,15.27
2022-11-16T06:31:53.080Z,14.40
2022-11-16T06:34:20.392Z,11.75
2022-11-16T06:36:47.445Z,15.30
2022-11-16T06:39:15.058Z,10.93
2022-11-16T06:41:41.805Z,18.27
2022-11-16T06:44:11.457Z,17.33
2022-11-16T06:46:43.557Z,13.77
2022-11-16T06:49:11.245Z,17.35
2022-11-16T06:51:37.989Z,18.92
2022-11-16T06:54:06.529Z,15.57
2022-11-16T06:56:36.517Z,16.42
2022-11-16T06:59:03.975Z,21.73
2022-11-16T07:01:31.224Z,22.17
2022-11-16T07:04:04.282Z,18.38
2022-11-16T07:06:31.187Z,21.38
2022-11-16T07:08:59.345Z,22.13
2022-11-16T07:11:29.962Z,24.80
2022-11-16T07:13:58.674Z,20.25
2022-11-16T07:16:25.703Z,20.40
2022-11-16T07:18:59.338Z,24.02
2022-11-16T07:21:29.047Z,27.10
2022-11-16T07:23:57.620Z,19.48
2022-11-16T07:26:24.615Z,27.25
2022-11-16T07:28:58.666Z,28.17
2022-11-16T07:31:25.706Z,20.63
2022-11-16T07:34:13.075Z,21.58
2022-11-16T07:36:50.847Z,20.55
2022-11-16T07:39:18.168Z,26.92
2022-11-16T07:41:46.256Z,30.95
2022-11-16T07:44:23.771Z,24.40
2022-11-16T07:47:03.684Z,21.52
2022-11-16T07:49:32.151Z,28.17
2022-11-16T07:52:04.196Z,29.50
2022-11-16T07:54:41.988Z,18.70
2022-11-16T07:57:08.601Z,21.35
2022-11-16T07:59:35.612Z,17.38
2022-11-16T08:02:04.950Z,19.45
2022-11-16T08:04:32.965Z,19.77
2022-11-16T08:06:59.873Z,19.25
2022-11-16T08:09:32.428Z,22.95
2022-11-16T08:11:59.952Z,16.33
2022-11-16T08:14:27.245Z,17.38
2022-11-16T08:16:55.803Z,20.50
2022-11-16T08:19:23.284Z,17.20
2022-11-16T08:21:50.934Z,23.58
2022-11-16T08:24:19.670Z,14.60
2022-11-16T08:26:46.743Z,27.90
2022-11-16T08:29:16.096Z,16.80
2022-11-16T08:31:48.073Z,20.60
2022-11-16T08:34:19.033Z,13.52
2022-11-16T08:36:49.720Z,16.40
2022-11-16T08:39:19.342Z,15.65
2022-11-16T08:41:45.910Z,11.73
2022-11-16T08:44:15.627Z,17.63
2022-11-16T08:46:45.482Z,19.97
2022-11-16T08:49:36.806Z,20.60
2022-11-16T08:52:04.751Z,14.38
2022-11-16T08:54:33.000Z,12.13
2022-11-16T08:56:59.638Z,16.02
2022-11-16T08:59:29.243Z,24.83
2022-11-16T09:02:00.372Z,13.25
2022-11-16T09:04:31.522Z,19.65
2022-11-16T09:07:00.820Z,15.70
2022-11-16T09:09:27.863Z,13.75
2022-11-16T09:11:55.251Z,16.73
2022-11-16T09:14:22.267Z,13.27
2022-11-16T09:16:48.844Z,16.15
2022-11-16T09:19:16.191Z,18.30
2022-11-16T09:21:45.376Z,22.30
2022-11-16T09:24:13.187Z,15.13
2022-11-16T09:26:39.815Z,16.65
2022-11-16T09:29:06.812Z,15.10
2022-11-16T09:31:37.303Z,12.85
2022-11-16T09:34:04.808Z,14.00
2022-11-16T09:36:31.660Z,19.42
2022-11-16T09:39:30.092Z,17.63
2022-11-16T09:42:22.994Z,11.98
2022-11-16T09:47:51.591Z,13.85
2022-11-16T09:50:45.464Z,15.38
2022-11-16T09:53:34.210Z,13.48
2022-11-16T09:56:08.529Z,13.25
2022-11-16T09:58:50.061Z,15.35
2022-11-16T10:01:24.178Z,13.27
2022-11-16T10:03:58.584Z,9.15
2022-11-16T10:06:51.522Z,19.52
2022-11-16T10:09:18.721Z,19.33
2022-11-16T10:12:03.334Z,9.43
2022-11-16T10:14:53.949Z,11.05
2022-11-16T10:17:36.942Z,12.68
2022-11-16T10:20:21.670Z,12.32
2022-11-16T10:23:31.236Z,9.90
2022-11-16T10:26:35.235Z,9.73
2022-11-16T10:29:49.507Z,13.93
2022-11-16T10:32:28.776Z,9.15
2022-11-16T10:35:17.539Z,13.45
2022-11-16T10:37:49.583Z,12.95
2022-11-16T10:40:30.115Z,11.18
2022-11-16T10:43:37.619Z,15.45
2022-11-16T10:46:42.383Z,7.93
2022-11-16T10:49:30.386Z,12.15
2022-11-16T10:51:58.240Z,19.50
2022-11-16T10:54:24.936Z,11.38
2022-11-16T10:57:14.171Z,7.13
2022-11-16T10:59:45.564Z,12.27
2022-11-16T11:02:25.166Z,12.65
2022-11-16T11:05:21.992Z,14.25
2022-11-16T11:08:11.065Z,9.55
2022-11-16T11:10:40.797Z,7.32
2022-11-16T11:13:10.484Z,8.82
2022-11-16T11:15:42.705Z,14.63
2022-11-16T11:18:15.633Z,12.55
2022-11-16T11:20:47.087Z,8.75
2022-11-16T11:23:16.138Z,15.80
2022-11-16T11:25:57.235Z,13.38
2022-11-16T11:28:25.982Z,11.43
2022-11-16T11:31:05.838Z,16.25
2022-11-16T11:33:51.536Z,13.65
2022-11-16T11:36:43.348Z,11.57
2022-11-16T11:39:13.153Z,12.48
2022-11-16T11:41:45.646Z,13.20
2022-11-16T11:44:19.198Z,15.55
2022-11-16T11:47:42.185Z,8.05
2022-11-16T11:49:50.044Z,9.82
2022-11-16T11:52:23.235Z,11.77
2022-11-16T11:54:52.364Z,8.90
2022-11-16T11:57:23.460Z,9.15
2022-11-16T11:59:53.128Z,18.85
2022-11-16T12:02:20.702Z,10.07
2022-11-16T12:04:56.549Z,11.90
2022-11-16T12:07:45.721Z,14.68
2022-11-16T12:10:41.416Z,11.98
2022-11-16T12:13:33.219Z,6.43
2022-11-16T12:16:17.415Z,8.57
2022-11-16T12:19:17.743Z,12.07
2022-11-16T12:21:59.662Z,7.70
2022-11-16T12:24:51.970Z,10.57
2022-11-16T12:27:51.131Z,9.57
2022-11-16T12:30:23.907Z,12.57
2022-11-16T12:32:54.165Z,10.25
2022-11-16T12:35:31.781Z,10.85
2022-11-16T12:38:26.335Z,13.98
2022-11-16T12:41:12.156Z,13.32
2022-11-16T12:44:02.576Z,10.18
2022-11-16T12:46:56.059Z,6.63
2022-11-16T12:49:52.353Z,8.98
2022-11-16T12:52:26.052Z,12.98
2022-11-16T12:55:28.487Z,10.98
2022-11-16T12:58:01.836Z,7.43
2022-11-16T13:00:29.625Z,9.75
2022-11-16T13:03:04.748Z,6.13
2022-11-16T13:05:43.251Z,17.33
2022-11-16T13:08:31.980Z,15.98
2022-11-16T13:11:22.309Z,13.57
2022-11-16T13:13:55.383Z,7.93
2022-11-16T13:16:24.760Z,15.30
2022-11-16T13:18:53.661Z,25.02
2022-11-16T13:21:39.099Z,14.43
2022-11-16T13:24:39.959Z,19.45
2022-11-16T13:27:25.946Z,10.57
2022-11-16T13:30:16.835Z,8.80
2022-11-16T13:33:04.432Z,10.45
2022-11-16T13:35:35.602Z,12.40
2022-11-16T13:38:02.892Z,10.77
2022-11-16T13:40:33.660Z,11.90
2022-11-16T13:43:14.369Z,13.93
2022-11-16T13:45:43.096Z,16.67
2022-11-16T13:48:26.376Z,9.63
2022-11-16T13:51:00.605Z,11.43
2022-11-16T13:56:29.056Z,11.60
2022-11-16T13:58:58.079Z,15.68
2022-11-16T14:01:26.816Z,14.15
2022-11-16T14:04:31.956Z,12.65
2022-11-16T14:07:00.383Z,14.48
2022-11-16T14:09:45.079Z,14.32
2022-11-16T14:12:38.393Z,6.50
2022-11-16T14:15:19.006Z,22.30
2022-11-16T14:17:54.232Z,26.15
2022-11-16T14:20:43.948Z,20.65
2022-11-16T14:23:29.027Z,12.55
2022-11-16T14:26:16.942Z,20.33
2022-11-16T14:29:17.513Z,13.75
2022-11-16T14:31:52.529Z,11.13
2022-11-16T14:34:44.146Z,13.00
2022-11-16T14:37:24.670Z,15.43
2022-11-16T14:39:57.473Z,13.95
2022-11-16T14:42:38.193Z,12.10
2022-11-16T14:45:27.629Z,12.82
2022-11-16T14:48:19.984Z,15.05
2022-11-16T14:51:11.105Z,24.42
2022-11-16T14:53:45.037Z,11.73
2022-11-16T14:56:16.761Z,6.97
2022-11-16T14:58:58.383Z,13.47
2022-11-16T15:01:29.995Z,16.17
2022-11-16T15:03:57.228Z,14.93
2022-11-16T15:06:25.790Z,12.20
2022-11-16T15:08:58.197Z,15.38
2022-11-16T15:11:49.292Z,9.70
2022-11-16T15:14:37.235Z,16.58
2022-11-16T15:17:07.176Z,13.52
2022-11-16T15:19:33.814Z,8.88
2022-11-16T15:22:03.152Z,9.77
2022-11-16T15:24:32.313Z,9.63
2022-11-16T15:27:23.652Z,16.25
2022-11-16T15:29:50.350Z,20.00
2022-11-16T15:32:18.440Z,12.32
2022-11-16T15:34:52.856Z,10.10
2022-11-16T15:37:30.421Z,11.95
2022-11-16T15:39:58.933Z,6.50
2022-11-16T15:42:27.876Z,10.07
2022-11-16T15:44:55.796Z,10.80
2022-11-16T15:47:24.012Z,12.05
2022-11-16T15:49:52.813Z,6.47
2022-11-16T15:52:46.040Z,7.85
2022-11-16T15:55:23.826Z,9.00
2022-11-16T15:58:15.070Z,12.63
2022-11-16T16:00:42.397Z,10.98
2022-11-16T16:03:28.241Z,8.32
2022-11-16T16:05:55.606Z,9.50
2022-11-16T16:08:36.300Z,10.75
2022-11-16T16:11:27.330Z,9.05
2022-11-16T16:14:00.580Z,8.30
2022-11-16T16:16:31.252Z,9.48
2022-11-16T16:19:06.544Z,9.52
2022-11-16T16:21:54.675Z,9.50
2022-11-16T16:24:44.450Z,6.57
2022-11-16T16:27:12.173Z,12.73
2022-11-16T16:29:39.450Z,7.10
2022-11-16T16:32:08.655Z,7.95
2022-11-16T16:34:39.315Z,12.65
2022-11-16T16:37:10.795Z,9.75
2022-11-16T16:39:39.412Z,8.23
2022-11-16T16:42:09.731Z,10.80
2022-11-16T16:44:36.668Z,8.55
2022-11-16T16:47:03.621Z,10.60
2022-11-16T16:49:30.389Z,8.13
2022-11-16T16:51:57.080Z,5.60
2022-11-16T16:54:24.793Z,12.15
2022-11-16T16:56:51.873Z,12.20
2022-11-16T16:59:18.505Z,8.18
2022-11-16T17:01:45.173Z,13.77
2022-11-16T17:04:12.516Z,9.80
2022-11-16T17:06:45.226Z,10.55
2022-11-16T17:09:13.706Z,10.60
2022-11-16T17:11:40.341Z,9.20
2022-11-16T17:14:08.305Z,10.10
2022-11-16T17:16:35.781Z,12.13
2022-11-16T17:19:04.413Z,11.63
2022-11-16T17:21:31.419Z,10.43
2022-11-16T17:23:58.806Z,8.32
2022-11-16T17:26:29.080Z,8.07
2022-11-16T17:28:57.459Z,17.73
2022-11-16T17:31:25.239Z,9.07
2022-11-16T17:33:52.960Z,13.93
2022-11-16T17:36:20.303Z,13.57
2022-11-16T17:38:47.592Z,25.95
2022-11-16T17:41:23.911Z,24.33
2022-11-16T17:43:53.329Z,18.33
2022-11-16T17:46:24.020Z,9.25
2022-11-16T17:48:51.955Z,16.10
2022-11-16T17:51:24.252Z,24.00
2022-11-16T17:53:51.811Z,14.23
2022-11-16T17:56:21.075Z,26.50
2022-11-16T17:58:49.964Z,12.13
2022-11-16T18:01:16.809Z,16.73
2022-11-16T18:03:43.611Z,16.17
2022-11-16T18:06:13.900Z,15.07
2022-11-16T18:08:42.104Z,14.85
2022-11-16T18:11:17.496Z,15.95
2022-11-16T18:13:47.078Z,6.53
2022-11-16T18:16:19.978Z,14.02
2022-11-16T18:18:47.909Z,9.68
2022-11-16T18:21:20.582Z,7.95
2022-11-16T18:23:48.280Z,9.05
2022-11-16T18:26:17.743Z,9.35
2022-11-16T18:28:45.322Z,9.95
2022-11-16T18:31:15.193Z,7.93
2022-11-16T18:33:43.235Z,6.22
2022-11-16T18:36:11.370Z,8.98
2022-11-16T18:38:38.910Z,9.48
2022-11-16T18:41:11.719Z,10.80
2022-11-16T18:43:39.043Z,9.10
2022-11-16T18:46:05.981Z,7.68
2022-11-16T18:48:33.352Z,13.48
2022-11-16T18:51:01.505Z,11.43
2022-11-16T18:53:30.300Z,10.98
2022-11-16T18:55:58.306Z,9.02
2022-11-16T19:01:17.313Z,11.82
2022-11-16T19:03:44.676Z,7.65
2022-11-16T19:06:11.952Z,9.95
2022-11-16T19:08:41.519Z,8.75
2022-11-16T19:11:13.620Z,10.85
2022-11-16T19:13:42.716Z,17.23
2022-11-16T19:16:11.259Z,18.77
2022-11-16T19:18:38.932Z,11.00
2022-11-16T19:21:10.855Z,19.90
2022-11-16T19:23:40.251Z,23.30
2022-11-16T19:26:07.465Z,20.77
2022-11-16T19:28:38.776Z,18.63
2022-11-16T19:31:20.747Z,18.95
2022-11-16T19:33:47.812Z,25.08
2022-11-16T19:36:16.905Z,17.67
2022-11-16T19:38:44.643Z,12.43
2022-11-16T19:41:13.223Z,9.65
2022-11-16T19:43:40.544Z,10.35
2022-11-16T19:46:12.923Z,16.70
2022-11-16T19:48:40.235Z,12.05
2022-11-16T19:51:11.627Z,10.05
2022-11-16T19:53:40.030Z,14.75
2022-11-16T19:56:09.679Z,12.30
2022-11-16T19:58:38.620Z,13.05
2022-11-16T20:01:15.145Z,12.63
2022-11-16T20:03:42.518Z,13.00
2022-11-16T20:06:11.541Z,12.85
2022-11-16T20:08:40.035Z,12.80
2022-11-16T20:11:14.925Z,16.67
2022-11-16T20:13:42.788Z,13.77
2022-11-16T20:16:11.680Z,18.23
2022-11-16T20:18:40.105Z,16.80
2022-11-16T20:21:08.072Z,14.85
2022-11-16T20:23:36.080Z,11.80
2022-11-16T20:26:05.296Z,12.50
2022-11-16T20:28:40.702Z,14.55
2022-11-16T20:31:14.644Z,8.70
2022-11-16T20:33:42.936Z,11.65
2022-11-16T20:36:11.548Z,8.10
2022-11-16T20:38:39.833Z,11.07
2022-11-16T20:41:15.132Z,10.50
2022-11-16T20:43:43.985Z,13.55
2022-11-16T20:46:16.778Z,13.63
2022-11-16T20:48:45.208Z,11.27
2022-11-16T20:51:14.385Z,11.00
2022-11-16T20:53:41.153Z,12.85
2022-11-16T20:56:09.466Z,12.38
2022-11-16T20:58:37.046Z,12.27
2022-11-16T21:01:15.230Z,14.57
2022-11-16T21:03:44.669Z,10.18
2022-11-16T21:06:12.893Z,14.50
2022-11-16T21:08:41.276Z,7.70
2022-11-16T21:11:16.858Z,12.65
2022-11-16T21:14:04.790Z,12.10
2022-11-16T21:16:32.597Z,12.68
2022-11-16T21:19:00.195Z,12.57
2022-11-16T21:21:27.207Z,9.30
2022-11-16T21:23:55.220Z,12.18
2022-11-16T21:26:25.288Z,12.45
2022-11-16T21:28:52.367Z,9.85
2022-11-16T21:31:28.425Z,9.23
2022-11-16T21:33:55.837Z,13.80
2022-11-16T21:36:25.669Z,11.90
2022-11-16T21:38:53.026Z,7.78
2022-11-16T21:41:22.246Z,23.27
2022-11-16T21:43:49.804Z,11.18
2022-11-16T21:46:24.770Z,16.45
2022-11-16T21:48:53.983Z,10.90
2022-11-16T21:51:22.653Z,12.68
2022-11-16T21:53:49.634Z,9.75
2022-11-16T21:56:18.732Z,13.10
2022-11-16T21:58:46.451Z,12.95
2022-11-16T22:01:15.468Z,8.18
2022-11-16T22:03:42.943Z,9.68
2022-11-16T22:06:32.865Z,11.13
2022-11-16T22:08:59.754Z,13.88
2022-11-16T22:11:26.886Z,15.13
2022-11-16T22:13:54.214Z,13.50
2022-11-16T22:16:22.939Z,11.63
2022-11-16T22:18:50.419Z,15.05
2022-11-16T22:21:17.350Z,14.13
2022-11-16T22:23:44.811Z,10.90
2022-11-16T22:26:13.124Z,14.30
2022-11-16T22:28:40.947Z,13.10
2022-11-16T22:31:16.602Z,16.58
2022-11-16T22:33:43.961Z,8.13
2022-11-16T22:36:11.383Z,13.27
2022-11-16T22:38:38.688Z,17.30
2022-11-16T22:41:05.524Z,12.55
2022-11-16T22:43:33.398Z,15.07
2022-11-16T22:46:02.596Z,12.15
2022-11-16T22:48:34.696Z,16.52
2022-11-16T22:51:03.229Z,8.50
2022-11-16T22:53:30.598Z,11.57
2022-11-16T22:56:03.678Z,14.68
2022-11-16T22:58:30.944Z,16.50
2022-11-16T23:00:57.842Z,17.20
2022-11-16T23:03:24.829Z,13.52
2022-11-16T23:05:51.486Z,11.35
2022-11-16T23:08:18.870Z,11.82
2022-11-16T23:11:04.197Z,14.32
2022-11-16T23:13:54.428Z,12.02
2022-11-16T23:16:21.051Z,14.38
2022-11-16T23:18:48.317Z,15.02
2022-11-16T23:21:33.501Z,9.65
2022-11-16T23:24:19.314Z,20.92
2022-11-16T23:27:04.714Z,14.57
2022-11-16T23:29:31.330Z,14.60
2022-11-16T23:31:58.202Z,13.25
2022-11-16T23:34:25.483Z,16.23
2022-11-16T23:36:52.095Z,18.88
2022-11-16T23:39:19.562Z,14.00
2022-11-16T23:42:04.692Z,11.73
2022-11-16T23:44:31.963Z,11.48
2022-11-16T23:46:58.539Z,14.73
2022-11-16T23:49:25.784Z,13.13
2022-11-16T23:51:52.469Z,17.25
2022-11-16T23:54:19.744Z,10.35
2022-11-16T23:56:46.340Z,17.27
2022-11-16T23:59:13.560Z,13.45
